sensor_id;sensor_type;location;lat;lon;timestamp;pressure;altitude;pressure_sealevel;temperature;humidity
58473;BME280;44775;51.564;5.460;2023-10-19T00:02:08;98993.34;;;10.86;100.00
58473;BME280;44775;51.564;5.460;2023-10-19T00:04:33;98988.00;;;10.86;100.00
58473;BME280;44775;51.564;5.460;2023-10-19T00:07:02;98996.44;;;10.90;100.00
58473;BME280;44775;51.564;5.460;2023-10-19T00:09:29;98998.06;;;10.91;100.00
58473;BME280;44775;51.564;5.460;2023-10-19T00:12:01;98991.03;;;10.97;100.00
58473;BME280;44775;51.564;5.460;2023-10-19T00:14:28;98985.09;;;10.95;100.00
58473;BME280;44775;51.564;5.460;2023-10-19T00:16:53;98998.66;;;10.93;100.00
58473;BME280;44775;51.564;5.460;2023-10-19T00:19:25;99000.03;;;11.02;100.00
58473;BME280;44775;51.564;5.460;2023-10-19T00:21:53;98999.44;;;11.00;100.00
58473;BME280;44775;51.564;5.460;2023-10-19T00:24:27;98994.81;;;11.14;100.00
58473;BME280;44775;51.564;5.460;2023-10-19T00:26:52;98995.97;;;11.25;100.00
58473;BME280;44775;51.564;5.460;2023-10-19T00:29:20;98994.72;;;11.27;100.00
58473;BME280;44775;51.564;5.460;2023-10-19T00:32:06;98988.72;;;11.32;100.00
58473;BME280;44775;51.564;5.460;2023-10-19T00:34:37;98992.44;;;11.31;100.00
58473;BME280;44775;51.564;5.460;2023-10-19T00:37:04;98984.41;;;11.31;100.00
58473;BME280;44775;51.564;5.460;2023-10-19T00:39:34;98986.19;;;11.37;100.00
58473;BME280;44775;51.564;5.460;2023-10-19T00:42:08;98979.00;;;11.38;100.00
58473;BME280;44775;51.564;5.460;2023-10-19T00:44:33;98978.94;;;11.44;100.00
58473;BME280;44775;51.564;5.460;2023-10-19T00:47:14;98973.59;;;11.44;100.00
58473;BME280;44775;51.564;5.460;2023-10-19T00:49:40;98976.22;;;11.51;100.00
58473;BME280;44775;51.564;5.460;2023-10-19T00:52:09;98976.47;;;11.43;100.00
58473;BME280;44775;51.564;5.460;2023-10-19T00:54:42;98974.59;;;11.43;100.00
58473;BME280;44775;51.564;5.460;2023-10-19T00:57:19;98969.88;;;11.45;100.00
58473;BME280;44775;51.564;5.460;2023-10-19T01:00:01;98980.28;;;11.53;100.00
58473;BME280;44775;51.564;5.460;2023-10-19T01:02:46;98972.34;;;11.65;100.00
58473;BME280;44775;51.564;5.460;2023-10-19T01:05:12;98975.97;;;11.71;100.00
58473;BME280;44775;51.564;5.460;2023-10-19T01:07:40;98970.94;;;11.81;100.00
58473;BME280;44775;51.564;5.460;2023-10-19T01:10:06;98965.00;;;11.79;100.00
58473;BME280;44775;51.564;5.460;2023-10-19T01:12:44;98967.41;;;11.87;100.00
58473;BME280;44775;51.564;5.460;2023-10-19T01:15:16;98974.53;;;11.93;100.00
58473;BME280;44775;51.564;5.460;2023-10-19T01:17:54;98964.81;;;11.99;100.00
58473;BME280;44775;51.564;5.460;2023-10-19T01:20:40;98969.84;;;12.07;100.00
58473;BME280;44775;51.564;5.460;2023-10-19T01:23:20;98969.34;;;12.17;100.00
58473;BME280;44775;51.564;5.460;2023-10-19T01:25:50;98973.19;;;12.21;100.00
58473;BME280;44775;51.564;5.460;2023-10-19T01:28:27;98965.06;;;12.27;100.00
58473;BME280;44775;51.564;5.460;2023-10-19T01:31:12;98965.81;;;12.35;100.00
58473;BME280;44775;51.564;5.460;2023-10-19T01:33:59;98954.44;;;12.39;100.00
58473;BME280;44775;51.564;5.460;2023-10-19T01:36:30;98956.78;;;12.47;100.00
58473;BME280;44775;51.564;5.460;2023-10-19T01:39:07;98953.19;;;12.53;100.00
58473;BME280;44775;51.564;5.460;2023-10-19T01:41:36;98957.66;;;12.60;100.00
58473;BME280;44775;51.564;5.460;2023-10-19T01:44:01;98950.78;;;12.64;100.00
58473;BME280;44775;51.564;5.460;2023-10-19T01:46:30;98955.69;;;12.67;100.00
58473;BME280;44775;51.564;5.460;2023-10-19T01:49:03;98956.25;;;12.69;100.00
58473;BME280;44775;51.564;5.460;2023-10-19T01:51:31;98953.56;;;12.69;100.00
58473;BME280;44775;51.564;5.460;2023-10-19T01:53:58;98955.81;;;12.72;100.00
58473;BME280;44775;51.564;5.460;2023-10-19T01:56:26;98957.56;;;12.78;100.00
58473;BME280;44775;51.564;5.460;2023-10-19T01:58:52;98955.59;;;12.85;100.00
58473;BME280;44775;51.564;5.460;2023-10-19T02:01:19;98959.09;;;12.86;100.00
58473;BME280;44775;51.564;5.460;2023-10-19T02:04:04;98953.63;;;12.92;100.00
58473;BME280;44775;51.564;5.460;2023-10-19T02:06:32;98958.44;;;13.02;100.00
58473;BME280;44775;51.564;5.460;2023-10-19T02:11:39;98964.91;;;13.13;100.00
58473;BME280;44775;51.564;5.460;2023-10-19T02:14:08;98966.06;;;13.17;100.00
58473;BME280;44775;51.564;5.460;2023-10-19T02:16:40;98964.19;;;13.17;100.00
58473;BME280;44775;51.564;5.460;2023-10-19T02:19:06;98953.00;;;13.20;100.00
58473;BME280;44775;51.564;5.460;2023-10-19T02:21:31;98961.53;;;13.29;100.00
58473;BME280;44775;51.564;5.460;2023-10-19T02:23:57;98958.84;;;13.29;100.00
58473;BME280;44775;51.564;5.460;2023-10-19T02:26:23;98956.31;;;13.34;100.00
58473;BME280;44775;51.564;5.460;2023-10-19T02:28:51;98953.63;;;13.34;100.00
58473;BME280;44775;51.564;5.460;2023-10-19T02:31:16;98952.09;;;13.38;100.00
58473;BME280;44775;51.564;5.460;2023-10-19T02:33:53;98942.78;;;13.41;100.00
58473;BME280;44775;51.564;5.460;2023-10-19T02:36:27;98949.09;;;13.46;100.00
58473;BME280;44775;51.564;5.460;2023-10-19T02:38:56;98946.50;;;13.52;100.00
58473;BME280;44775;51.564;5.460;2023-10-19T02:41:25;98955.84;;;13.61;100.00
58473;BME280;44775;51.564;5.460;2023-10-19T02:43:52;98946.25;;;13.65;100.00
58473;BME280;44775;51.564;5.460;2023-10-19T02:46:37;98949.63;;;13.72;100.00
58473;BME280;44775;51.564;5.460;2023-10-19T02:49:07;98943.78;;;13.75;100.00
58473;BME280;44775;51.564;5.460;2023-10-19T02:51:38;98951.94;;;13.80;100.00
58473;BME280;44775;51.564;5.460;2023-10-19T02:54:04;98952.19;;;13.79;100.00
58473;BME280;44775;51.564;5.460;2023-10-19T02:56:31;98947.88;;;13.78;100.00
58473;BME280;44775;51.564;5.460;2023-10-19T02:58:56;98947.06;;;13.77;100.00
58473;BME280;44775;51.564;5.460;2023-10-19T03:01:27;98951.59;;;13.77;100.00
58473;BME280;44775;51.564;5.460;2023-10-19T03:03:57;98944.94;;;13.79;100.00
58473;BME280;44775;51.564;5.460;2023-10-19T03:06:26;98944.72;;;13.81;100.00
58473;BME280;44775;51.564;5.460;2023-10-19T03:08:56;98949.84;;;13.82;100.00
58473;BME280;44775;51.564;5.460;2023-10-19T03:11:27;98942.84;;;13.81;100.00
58473;BME280;44775;51.564;5.460;2023-10-19T03:13:53;98943.88;;;13.80;100.00
58473;BME280;44775;51.564;5.460;2023-10-19T03:16:20;98950.31;;;13.79;100.00
58473;BME280;44775;51.564;5.460;2023-10-19T03:18:47;98943.31;;;13.78;100.00
58473;BME280;44775;51.564;5.460;2023-10-19T03:21:12;98939.03;;;13.77;100.00
58473;BME280;44775;51.564;5.460;2023-10-19T03:23:37;98943.31;;;13.78;100.00
58473;BME280;44775;51.564;5.460;2023-10-19T03:26:03;98940.88;;;13.77;100.00
58473;BME280;44775;51.564;5.460;2023-10-19T03:28:49;98940.78;;;13.72;100.00
58473;BME280;44775;51.564;5.460;2023-10-19T03:31:19;98940.53;;;13.73;100.00
58473;BME280;44775;51.564;5.460;2023-10-19T03:33:45;98931.09;;;13.70;100.00
58473;BME280;44775;51.564;5.460;2023-10-19T03:36:15;98919.50;;;13.70;100.00
58473;BME280;44775;51.564;5.460;2023-10-19T03:38:41;98917.06;;;13.68;100.00
58473;BME280;44775;51.564;5.460;2023-10-19T03:41:09;98924.06;;;13.69;100.00
58473;BME280;44775;51.564;5.460;2023-10-19T03:43:34;98918.34;;;13.66;100.00
58473;BME280;44775;51.564;5.460;2023-10-19T03:46:03;98923.72;;;13.66;100.00
58473;BME280;44775;51.564;5.460;2023-10-19T03:48:40;98917.53;;;13.65;100.00
58473;BME280;44775;51.564;5.460;2023-10-19T03:51:05;98917.31;;;13.67;100.00
58473;BME280;44775;51.564;5.460;2023-10-19T03:53:31;98921.63;;;13.68;100.00
58473;BME280;44775;51.564;5.460;2023-10-19T03:55:57;98921.84;;;13.66;100.00
58473;BME280;44775;51.564;5.460;2023-10-19T03:58:23;98914.06;;;13.65;100.00
58473;BME280;44775;51.564;5.460;2023-10-19T04:00:48;98924.31;;;13.68;100.00
58473;BME280;44775;51.564;5.460;2023-10-19T04:03:15;98921.03;;;13.66;100.00
58473;BME280;44775;51.564;5.460;2023-10-19T04:05:42;98909.16;;;13.62;100.00
58473;BME280;44775;51.564;5.460;2023-10-19T04:08:12;98915.00;;;13.59;100.00
58473;BME280;44775;51.564;5.460;2023-10-19T04:10:45;98912.78;;;13.56;100.00
58473;BME280;44775;51.564;5.460;2023-10-19T04:13:12;98900.88;;;13.52;100.00
58473;BME280;44775;51.564;5.460;2023-10-19T04:15:38;98905.31;;;13.46;100.00
58473;BME280;44775;51.564;5.460;2023-10-19T04:18:04;98904.97;;;13.42;100.00
58473;BME280;44775;51.564;5.460;2023-10-19T04:20:39;98913.47;;;13.39;100.00
58473;BME280;44775;51.564;5.460;2023-10-19T04:23:24;98912.09;;;13.37;100.00
58473;BME280;44775;51.564;5.460;2023-10-19T04:25:53;98906.03;;;13.30;100.00
58473;BME280;44775;51.564;5.460;2023-10-19T04:28:22;98904.38;;;13.29;100.00
58473;BME280;44775;51.564;5.460;2023-10-19T04:30:57;98898.91;;;13.23;100.00
58473;BME280;44775;51.564;5.460;2023-10-19T04:33:27;98902.84;;;13.21;100.00
58473;BME280;44775;51.564;5.460;2023-10-19T04:35:53;98902.59;;;13.22;100.00
58473;BME280;44775;51.564;5.460;2023-10-19T04:38:22;98907.41;;;13.20;100.00
58473;BME280;44775;51.564;5.460;2023-10-19T04:40:47;98899.34;;;13.20;100.00
58473;BME280;44775;51.564;5.460;2023-10-19T04:43:12;98905.53;;;13.21;100.00
58473;BME280;44775;51.564;5.460;2023-10-19T04:45:40;98900.75;;;13.23;100.00
58473;BME280;44775;51.564;5.460;2023-10-19T04:48:05;98902.75;;;13.28;100.00
58473;BME280;44775;51.564;5.460;2023-10-19T04:50:31;98898.09;;;13.23;100.00
58473;BME280;44775;51.564;5.460;2023-10-19T04:52:56;98917.25;;;13.27;100.00
58473;BME280;44775;51.564;5.460;2023-10-19T04:55:21;98916.66;;;13.25;100.00
58473;BME280;44775;51.564;5.460;2023-10-19T04:57:47;98918.06;;;13.27;100.00
58473;BME280;44775;51.564;5.460;2023-10-19T05:00:13;98915.84;;;13.24;100.00
58473;BME280;44775;51.564;5.460;2023-10-19T05:02:39;98919.06;;;13.26;100.00
58473;BME280;44775;51.564;5.460;2023-10-19T05:05:05;98922.22;;;13.23;100.00
58473;BME280;44775;51.564;5.460;2023-10-19T05:07:30;98913.97;;;13.25;100.00
58473;BME280;44775;51.564;5.460;2023-10-19T05:09:55;98912.44;;;13.29;100.00
58473;BME280;44775;51.564;5.460;2023-10-19T05:12:21;98915.94;;;13.29;100.00
58473;BME280;44775;51.564;5.460;2023-10-19T05:14:46;98917.25;;;13.27;100.00
58473;BME280;44775;51.564;5.460;2023-10-19T05:17:12;98917.25;;;13.27;100.00
58473;BME280;44775;51.564;5.460;2023-10-19T05:19:39;98921.19;;;13.24;100.00
58473;BME280;44775;51.564;5.460;2023-10-19T05:22:06;98926.19;;;13.20;100.00
58473;BME280;44775;51.564;5.460;2023-10-19T05:24:32;98927.00;;;13.21;100.00
58473;BME280;44775;51.564;5.460;2023-10-19T05:26:58;98923.72;;;13.19;100.00
58473;BME280;44775;51.564;5.460;2023-10-19T05:29:23;98921.28;;;13.17;100.00
58473;BME280;44775;51.564;5.460;2023-10-19T05:31:50;98920.47;;;13.17;100.00
58473;BME280;44775;51.564;5.460;2023-10-19T05:34:21;98914.28;;;13.16;100.00
58473;BME280;44775;51.564;5.460;2023-10-19T05:36:47;98926.03;;;13.15;100.00
58473;BME280;44775;51.564;5.460;2023-10-19T05:39:16;98931.66;;;13.14;100.00
58473;BME280;44775;51.564;5.460;2023-10-19T05:41:42;98926.50;;;13.12;100.00
58473;BME280;44775;51.564;5.460;2023-10-19T05:44:07;98929.44;;;13.11;100.00
58473;BME280;44775;51.564;5.460;2023-10-19T05:46:33;98935.75;;;13.16;100.00
58473;BME280;44775;51.564;5.460;2023-10-19T05:48:58;98949.38;;;13.15;100.00
58473;BME280;44775;51.564;5.460;2023-10-19T05:51:23;98931.66;;;13.14;100.00
58473;BME280;44775;51.564;5.460;2023-10-19T05:53:49;98940.75;;;13.13;100.00
58473;BME280;44775;51.564;5.460;2023-10-19T05:56:16;98944.00;;;13.15;100.00
58473;BME280;44775;51.564;5.460;2023-10-19T05:58:42;98942.94;;;13.16;100.00
58473;BME280;44775;51.564;5.460;2023-10-19T06:01:08;98942.50;;;13.19;100.00
58473;BME280;44775;51.564;5.460;2023-10-19T06:03:33;98946.56;;;13.21;100.00
58473;BME280;44775;51.564;5.460;2023-10-19T06:05:58;98937.38;;;13.17;100.00
58473;BME280;44775;51.564;5.460;2023-10-19T06:08:23;98936.56;;;13.17;100.00
58473;BME280;44775;51.564;5.460;2023-10-19T06:10:52;98944.94;;;13.20;100.00
58473;BME280;44775;51.564;5.460;2023-10-19T06:13:18;98945.53;;;13.22;100.00
58473;BME280;44775;51.564;5.460;2023-10-19T06:15:43;98953.81;;;13.21;100.00
58473;BME280;44775;51.564;5.460;2023-10-19T06:18:09;98951.72;;;13.23;100.00
58473;BME280;44775;51.564;5.460;2023-10-19T06:20:36;98965.13;;;13.23;100.00
58473;BME280;44775;51.564;5.460;2023-10-19T06:23:01;98958.28;;;13.27;100.00
58473;BME280;44775;51.564;5.460;2023-10-19T06:25:31;98960.38;;;13.25;100.00
58473;BME280;44775;51.564;5.460;2023-10-19T06:27:57;98961.53;;;13.29;100.00
58473;BME280;44775;51.564;5.460;2023-10-19T06:30:23;98965.88;;;13.30;100.00
58473;BME280;44775;51.564;5.460;2023-10-19T06:32:54;98949.88;;;13.35;100.00
58473;BME280;44775;51.564;5.460;2023-10-19T06:35:20;98944.41;;;13.30;100.00
58473;BME280;44775;51.564;5.460;2023-10-19T06:37:47;98953.28;;;13.31;100.00
58473;BME280;44775;51.564;5.460;2023-10-19T06:40:13;98967.03;;;13.34;100.00
58473;BME280;44775;51.564;5.460;2023-10-19T06:42:46;98969.72;;;13.34;100.00
58473;BME280;44775;51.564;5.460;2023-10-19T06:45:16;98967.25;;;13.33;100.00
58473;BME280;44775;51.564;5.460;2023-10-19T06:47:46;98966.69;;;13.31;100.00
58473;BME280;44775;51.564;5.460;2023-10-19T06:50:13;98965.28;;;13.28;100.00
58473;BME280;44775;51.564;5.460;2023-10-19T06:52:41;98970.19;;;13.31;100.00
58473;BME280;44775;51.564;5.460;2023-10-19T06:55:08;98967.50;;;13.31;100.00
58473;BME280;44775;51.564;5.460;2023-10-19T06:57:42;98965.88;;;13.30;100.00
58473;BME280;44775;51.564;5.460;2023-10-19T07:00:11;98967.25;;;13.33;100.00
58473;BME280;44775;51.564;5.460;2023-10-19T07:02:44;98975.66;;;13.36;100.00
58473;BME280;44775;51.564;5.460;2023-10-19T07:05:11;98972.84;;;13.31;100.00
58473;BME280;44775;51.564;5.460;2023-10-19T07:07:39;98984.88;;;13.40;100.00
58473;BME280;44775;51.564;5.460;2023-10-19T07:10:07;98979.88;;;13.44;100.00
58473;BME280;44775;51.564;5.460;2023-10-19T07:12:34;98979.16;;;13.49;100.00
58473;BME280;44775;51.564;5.460;2023-10-19T07:14:59;98985.69;;;13.53;100.00
58473;BME280;44775;51.564;5.460;2023-10-19T07:17:26;98987.44;;;13.59;100.00
58473;BME280;44775;51.564;5.460;2023-10-19T07:19:52;98978.22;;;13.66;100.00
58473;BME280;44775;51.564;5.460;2023-10-19T07:22:17;98987.13;;;13.67;100.00
58473;BME280;44775;51.564;5.460;2023-10-19T07:24:47;98986.63;;;13.70;100.00
58473;BME280;44775;51.564;5.460;2023-10-19T07:27:12;98986.63;;;13.70;100.00
58473;BME280;44775;51.564;5.460;2023-10-19T07:29:46;98989.53;;;13.80;100.00
58473;BME280;44775;51.564;5.460;2023-10-19T07:32:13;98981.38;;;13.75;100.00
58473;BME280;44775;51.564;5.460;2023-10-19T07:34:39;98989.44;;;13.75;100.00
58473;BME280;44775;51.564;5.460;2023-10-19T07:37:05;98985.47;;;13.78;100.00
58473;BME280;44775;51.564;5.460;2023-10-19T07:39:32;98973.19;;;13.82;100.00
58473;BME280;44775;51.564;5.460;2023-10-19T07:41:59;98968.06;;;13.80;100.00
58473;BME280;44775;51.564;5.460;2023-10-19T07:44:24;98972.94;;;13.83;100.00
58473;BME280;44775;51.564;5.460;2023-10-19T07:46:51;98977.63;;;13.88;100.00
58473;BME280;44775;51.564;5.460;2023-10-19T07:49:16;98974.81;;;13.94;100.00
58473;BME280;44775;51.564;5.460;2023-10-19T07:51:46;98978.06;;;13.97;100.00
58473;BME280;44775;51.564;5.460;2023-10-19T07:54:12;98977.13;;;14.03;100.00
58473;BME280;44775;51.564;5.460;2023-10-19T07:56:37;98974.31;;;14.09;100.00
58473;BME280;44775;51.564;5.460;2023-10-19T07:59:02;98973.47;;;14.21;100.00
58473;BME280;44775;51.564;5.460;2023-10-19T08:01:28;98972.66;;;14.20;100.00
58473;BME280;44775;51.564;5.460;2023-10-19T08:03:53;98974.50;;;14.31;100.00
58473;BME280;44775;51.564;5.460;2023-10-19T08:06:19;98969.81;;;14.38;100.00
58473;BME280;44775;51.564;5.460;2023-10-19T08:08:44;98962.28;;;14.40;100.00
58473;BME280;44775;51.564;5.460;2023-10-19T08:11:09;98965.66;;;14.48;100.00
58473;BME280;44775;51.564;5.460;2023-10-19T08:13:34;98961.94;;;14.49;100.00
58473;BME280;44775;51.564;5.460;2023-10-19T08:16:00;98967.38;;;14.66;100.00
58473;BME280;44775;51.564;5.460;2023-10-19T08:18:25;98964.25;;;14.57;100.00
58473;BME280;44775;51.564;5.460;2023-10-19T08:20:50;98968.94;;;14.61;100.00
58473;BME280;44775;51.564;5.460;2023-10-19T08:23:15;98959.53;;;14.64;100.00
58473;BME280;44775;51.564;5.460;2023-10-19T08:25:48;98964.91;;;14.64;100.00
58473;BME280;44775;51.564;5.460;2023-10-19T08:28:16;98958.59;;;14.70;100.00
58473;BME280;44775;51.564;5.460;2023-10-19T08:30:41;98957.22;;;14.84;100.00
58473;BME280;44775;51.564;5.460;2023-10-19T08:33:07;98955.59;;;14.83;100.00
58473;BME280;44775;51.564;5.460;2023-10-19T08:35:34;98959.38;;;14.99;100.00
58473;BME280;44775;51.564;5.460;2023-10-19T08:38:00;98966.06;;;15.14;100.00
58473;BME280;44775;51.564;5.460;2023-10-19T08:40:29;98962.28;;;15.31;100.00
58473;BME280;44775;51.564;5.460;2023-10-19T08:42:55;98960.50;;;15.37;100.00
58473;BME280;44775;51.564;5.460;2023-10-19T08:45:20;98964.25;;;15.53;100.00
58473;BME280;44775;51.564;5.460;2023-10-19T08:47:57;98965.06;;;15.53;100.00
58473;BME280;44775;51.564;5.460;2023-10-19T08:50:29;98954.03;;;15.55;100.00
58473;BME280;44775;51.564;5.460;2023-10-19T08:52:56;98957.94;;;15.64;100.00
58473;BME280;44775;51.564;5.460;2023-10-19T08:55:22;98960.31;;;15.99;100.00
58473;BME280;44775;51.564;5.460;2023-10-19T08:57:49;98963.06;;;16.26;100.00
58473;BME280;44775;51.564;5.460;2023-10-19T09:02:47;98963.84;;;16.98;100.00
58473;BME280;44775;51.564;5.460;2023-10-19T09:05:13;98973.25;;;17.28;100.00
58473;BME280;44775;51.564;5.460;2023-10-19T09:07:57;98965.78;;;17.35;100.00
58473;BME280;44775;51.564;5.460;2023-10-19T09:10:26;98968.94;;;17.64;100.00
58473;BME280;44775;51.564;5.460;2023-10-19T09:13:03;98954.75;;;17.84;100.00
58473;BME280;44775;51.564;5.460;2023-10-19T09:15:30;98954.78;;;17.89;100.00
58473;BME280;44775;51.564;5.460;2023-10-19T09:20:48;98940.28;;;18.15;100.00
58473;BME280;44775;51.564;5.460;2023-10-19T09:23:27;98944.19;;;18.50;100.00
58473;BME280;44775;51.564;5.460;2023-10-19T09:25:57;98939.34;;;18.62;100.00
58473;BME280;44775;51.564;5.460;2023-10-19T09:28:22;98948.88;;;18.96;100.00
58473;BME280;44775;51.564;5.460;2023-10-19T09:30:49;98937.59;;;18.15;100.00
58473;BME280;44775;51.564;5.460;2023-10-19T09:33:16;98936.50;;;18.06;100.00
58473;BME280;44775;51.564;5.460;2023-10-19T09:35:45;98938.94;;;18.13;100.00
58473;BME280;44775;51.564;5.460;2023-10-19T09:38:12;98934.69;;;18.42;100.00
58473;BME280;44775;51.564;5.460;2023-10-19T09:40:38;98943.13;;;18.61;100.00
58473;BME280;44775;51.564;5.460;2023-10-19T09:43:05;98946.94;;;18.60;100.00
58473;BME280;44775;51.564;5.460;2023-10-19T09:45:36;98950.94;;;18.48;100.00
58473;BME280;44775;51.564;5.460;2023-10-19T09:48:05;98956.38;;;18.53;100.00
58473;BME280;44775;51.564;5.460;2023-10-19T09:50:32;98944.72;;;18.37;100.00
58473;BME280;44775;51.564;5.460;2023-10-19T09:52:58;98940.31;;;18.21;100.00
58473;BME280;44775;51.564;5.460;2023-10-19T09:55:33;98943.00;;;18.10;100.00
58473;BME280;44775;51.564;5.460;2023-10-19T09:58:04;98942.09;;;17.89;100.00
58473;BME280;44775;51.564;5.460;2023-10-19T10:00:32;98931.47;;;17.78;100.00
58473;BME280;44775;51.564;5.460;2023-10-19T10:02:59;98927.78;;;17.94;100.00
58473;BME280;44775;51.564;5.460;2023-10-19T10:10:42;98912.25;;;18.37;100.00
58473;BME280;44775;51.564;5.460;2023-10-19T10:15:58;98919.06;;;18.50;100.00
58473;BME280;44775;51.564;5.460;2023-10-19T10:18:28;98922.03;;;18.58;100.00
58473;BME280;44775;51.564;5.460;2023-10-19T10:21:19;98938.56;;;18.67;100.00
58473;BME280;44775;51.564;5.460;2023-10-19T10:23:53;98937.25;;;18.80;100.00
58473;BME280;44775;51.564;5.460;2023-10-19T10:26:22;98934.19;;;18.66;100.00
58473;BME280;44775;51.564;5.460;2023-10-19T10:31:44;98936.69;;;18.78;100.00
58473;BME280;44775;51.564;5.460;2023-10-19T10:34:12;98939.69;;;18.92;100.00
58473;BME280;44775;51.564;5.460;2023-10-19T10:37:01;98939.97;;;18.90;100.00
58473;BME280;44775;51.564;5.460;2023-10-19T10:39:33;98936.66;;;18.68;100.00
58473;BME280;44775;51.564;5.460;2023-10-19T10:42:05;98941.28;;;18.72;100.00
58473;BME280;44775;51.564;5.460;2023-10-19T10:44:49;98941.53;;;18.60;100.00
58473;BME280;44775;51.564;5.460;2023-10-19T10:47:20;98931.22;;;18.52;100.00
58473;BME280;44775;51.564;5.460;2023-10-19T10:49:50;98925.81;;;18.62;100.00
58473;BME280;44775;51.564;5.460;2023-10-19T10:52:29;98934.75;;;18.68;100.00
58473;BME280;44775;51.564;5.460;2023-10-19T10:54:59;98945.63;;;18.73;100.00
58473;BME280;44775;51.564;5.460;2023-10-19T10:57:32;98934.81;;;18.73;100.00
58473;BME280;44775;51.564;5.460;2023-10-19T11:00:08;98939.41;;;18.93;100.00
58473;BME280;44775;51.564;5.460;2023-10-19T11:02:45;98938.59;;;18.87;100.00
58473;BME280;44775;51.564;5.460;2023-10-19T11:05:15;98936.97;;;18.81;100.00
58473;BME280;44775;51.564;5.460;2023-10-19T11:10:30;98924.72;;;18.58;100.00
58473;BME280;44775;51.564;5.460;2023-10-19T11:13:00;98926.34;;;18.44;100.00
58473;BME280;44775;51.564;5.460;2023-10-19T11:15:26;98921.94;;;18.12;100.00
58473;BME280;44775;51.564;5.460;2023-10-19T11:17:51;98916.28;;;18.24;100.00
58473;BME280;44775;51.564;5.460;2023-10-19T11:20:24;98913.63;;;18.39;100.00
58473;BME280;44775;51.564;5.460;2023-10-19T11:22:51;98904.38;;;18.25;100.00
58473;BME280;44775;51.564;5.460;2023-10-19T11:25:21;98902.56;;;18.46;100.00
58473;BME280;44775;51.564;5.460;2023-10-19T11:27:47;98897.16;;;18.67;100.00
58473;BME280;44775;51.564;5.460;2023-10-19T11:30:13;98905.03;;;18.78;100.00
58473;BME280;44775;51.564;5.460;2023-10-19T11:32:39;98905.03;;;18.99;100.00
58473;BME280;44775;51.564;5.460;2023-10-19T11:35:04;98904.22;;;19.08;100.00
58473;BME280;44775;51.564;5.460;2023-10-19T11:37:50;98899.63;;;19.24;100.00
58473;BME280;44775;51.564;5.460;2023-10-19T11:40:18;98896.09;;;19.03;100.00
58473;BME280;44775;51.564;5.460;2023-10-19T11:42:44;98892.84;;;18.76;100.00
58473;BME280;44775;51.564;5.460;2023-10-19T11:45:11;98885.50;;;18.61;100.00
58473;BME280;44775;51.564;5.460;2023-10-19T11:47:39;98883.13;;;18.80;100.00
58473;BME280;44775;51.564;5.460;2023-10-19T11:50:05;98876.28;;;18.36;100.00
58473;BME280;44775;51.564;5.460;2023-10-19T11:52:31;98876.81;;;18.23;100.00
58473;BME280;44775;51.564;5.460;2023-10-19T11:54:56;98867.03;;;18.12;100.00
58473;BME280;44775;51.564;5.460;2023-10-19T11:57:23;98870.56;;;18.12;100.00
58473;BME280;44775;51.564;5.460;2023-10-19T11:59:49;98873.72;;;17.94;100.00
58473;BME280;44775;51.564;5.460;2023-10-19T12:02:18;98877.28;;;18.00;100.00
58473;BME280;44775;51.564;5.460;2023-10-19T12:04:44;98871.00;;;17.79;100.00
58473;BME280;44775;51.564;5.460;2023-10-19T12:07:10;98865.75;;;17.67;100.00
58473;BME280;44775;51.564;5.460;2023-10-19T12:09:36;98880.06;;;17.62;100.00
58473;BME280;44775;51.564;5.460;2023-10-19T12:12:01;98872.91;;;17.36;100.00
58473;BME280;44775;51.564;5.460;2023-10-19T12:14:28;98860.94;;;17.21;100.00
58473;BME280;44775;51.564;5.460;2023-10-19T12:16:53;98861.31;;;16.98;100.00
58473;BME280;44775;51.564;5.460;2023-10-19T12:19:19;98862.16;;;17.04;100.00
58473;BME280;44775;51.564;5.460;2023-10-19T12:21:44;98859.44;;;17.04;100.00
58473;BME280;44775;51.564;5.460;2023-10-19T12:24:10;98850.16;;;16.84;100.00
58473;BME280;44775;51.564;5.460;2023-10-19T12:26:36;98852.66;;;16.96;100.00
58473;BME280;44775;51.564;5.460;2023-10-19T12:29:01;98850.59;;;17.08;100.00
58473;BME280;44775;51.564;5.460;2023-10-19T12:31:31;98847.97;;;17.18;100.00
58473;BME280;44775;51.564;5.460;2023-10-19T12:33:57;98855.25;;;17.18;100.00
58473;BME280;44775;51.564;5.460;2023-10-19T12:36:22;98852.84;;;17.21;100.00
58473;BME280;44775;51.564;5.460;2023-10-19T12:38:53;98853.97;;;17.31;100.00
58473;BME280;44775;51.564;5.460;2023-10-19T12:41:22;98857.28;;;17.43;100.00
58473;BME280;44775;51.564;5.460;2023-10-19T12:43:49;98848.28;;;17.27;100.00
58473;BME280;44775;51.564;5.460;2023-10-19T12:46:17;98851.88;;;17.48;100.00
58473;BME280;44775;51.564;5.460;2023-10-19T12:48:44;98838.84;;;17.25;100.00
58473;BME280;44775;51.564;5.460;2023-10-19T12:51:12;98836.53;;;17.06;100.00
58473;BME280;44775;51.564;5.460;2023-10-19T12:53:38;98834.94;;;17.10;100.00
58473;BME280;44775;51.564;5.460;2023-10-19T12:56:05;98832.75;;;17.02;100.00
58473;BME280;44775;51.564;5.460;2023-10-19T12:58:31;98831.78;;;16.81;100.00
58473;BME280;44775;51.564;5.460;2023-10-19T13:00:57;98828.72;;;16.72;100.00
58473;BME280;44775;51.564;5.460;2023-10-19T13:03:24;98824.94;;;16.73;100.00
58473;BME280;44775;51.564;5.460;2023-10-19T13:05:52;98812.41;;;16.89;100.00
58473;BME280;44775;51.564;5.460;2023-10-19T13:08:18;98803.44;;;16.79;100.00
58473;BME280;44775;51.564;5.460;2023-10-19T13:10:45;98810.06;;;16.66;100.00
58473;BME280;44775;51.564;5.460;2023-10-19T13:13:13;98804.16;;;16.69;100.00
58473;BME280;44775;51.564;5.460;2023-10-19T13:15:44;98807.56;;;16.59;100.00
58473;BME280;44775;51.564;5.460;2023-10-19T13:18:10;98809.25;;;16.65;100.00
58473;BME280;44775;51.564;5.460;2023-10-19T13:20:37;98807.84;;;16.58;100.00